Aeroporto :
LOGIN :

Iscrizione | Disclaimer

   EN    FR    IT 

 










Sommario :    VFR   VFR Marginale   IFR   IFR Intensivo   IFR Molto Intensivo
Visibilità : 
Base nubi : 
>= 8 km
>= 3000ft
5 / 8 km
1000 / 3000 ft
1500m / 5 km
500 / 1000 ft
800 / 1500m
200 / 500 ft
< 800m
< 200 ft
Simboli :   Temporali  Nebbia  Neve Forte  Precipitazioni Forti  Vento > 20 kt
SIGMETs :   Varie  Temporali  Ghiacco  Turbolenza  Onda orograficha  Ceneri Vulcaniche






- Altitudine del aeroporto : 102 ft
- Codice IATA : EXT


EGTE - Exeter

ULTIMO METAR :
  • 131150Z 16006KT 130V200 9999 FEW020 07/03 Q0999

METARs OBSOLETI :
  • 131120Z 17007KT 9999 FEW030 08/04 Q1000
  • 131050Z 19008KT 9999 FEW030 08/04 Q1001
  • 131020Z 18006KT 9999 FEW030 08/04 Q1001
  • 130950Z 20006KT 9999 FEW030 07/04 Q1002
  • 130920Z 22005KT 9999 FEW030 07/03 Q1002

TAF TAF EGTE
Valido dal 13 a 12 ore il 13 a 21 ore UTC


131104Z 1312/1321 19008KT 9999 FEW030
PROB30
TEMPO 1312/1315 8000 SHRA BKN012
TEMPO 1315/1318 6000 SHRA BKN012
PROB30
TEMPO 1315/1317 19017G27KT 3000 +SHRA BKN009
PROB30
TEMPO 1318/1321 7000 SHRA BKN010



MetMap, La meteo Aeronautica in un colpo d'occhio ! - Copyright ORBIFLY Dicembre 2007 - Disclaimer

ORBIFLY MET'MAP TEAM :

Programmazione e sviluppo : Alexandra Zaïnal
Concezione e sviluppo : Baudouin d'Aumeries
Co-Programmazione e sviluppo : Marc-Olivier Méhu
Supporto tecnico e logistico : Manuel Goepfert
Aiuto per la traduzione : Arnaldo La Scala

Contatto : metmap@orbifly.com




FONTI E CREDITI :

   NOAA